Crowley Lake, California
Current Conditions -  °F | °C
As of 12:35 PM on Friday 26 Dec 2014 (Local Time) from KMMH Reporting Station
Clear Clear  
Wind Chill: 26°   Ceiling: Unl
Heat Index: 34°   Visibility: 10mi
Dew Point: -4°   Wind: 9mph
Humidity: 20%   Direction: 310°NW
Pressure: 30.05"   Gusts: 17mph
Location:  37.6599°N, 118.912°W
Report Text: KMMH 262035Z AUTO 31008G15KT 10SM CLR 01/M20 A3005 RMK AO1
Loading
Personal Weather Stations






























Interactive Weather Map New forecast layout! Learn more

10-Day Weather Forecast

Advertisements
Track Severe Weather on mobile